createdAt,value
2019-05-02T00:00:52.412Z,99.6
2019-05-02T00:01:53.812Z,99.9
2019-05-02T00:02:55.212Z,100.0
2019-05-02T00:03:56.649Z,100.0
2019-05-02T00:04:58.040Z,100.0
2019-05-02T00:06:03.004Z,100.0
2019-05-02T00:07:00.824Z,100.0
2019-05-02T00:08:02.235Z,100.0
2019-05-02T00:09:03.931Z,100.0
2019-05-02T00:10:04.995Z,100.0
2019-05-02T00:11:06.384Z,100.0
2019-05-02T00:12:07.783Z,100.0
2019-05-02T00:13:09.174Z,100.0
2019-05-02T00:14:10.572Z,100.0
2019-05-02T00:15:11.961Z,100.0
2019-05-02T00:16:14.234Z,100.0
2019-05-02T00:17:14.745Z,100.0
2019-05-02T00:18:16.150Z,100.0
2019-05-02T00:19:17.554Z,100.0
2019-05-02T00:20:21.126Z,100.0
2019-05-02T00:21:20.318Z,100.0
2019-05-02T00:22:21.733Z,100.0
2019-05-02T00:23:27.793Z,100.0
2019-05-02T00:24:24.600Z,100.0
2019-05-02T00:25:25.990Z,100.0
2019-05-02T00:26:27.385Z,100.0
2019-05-02T00:27:32.716Z,100.0
2019-05-02T00:28:30.132Z,100.0
2019-05-02T00:29:31.539Z,100.0
2019-05-02T00:30:34.648Z,100.0
2019-05-02T00:31:34.309Z,100.0
2019-05-02T00:32:35.698Z,100.0
2019-05-02T00:33:37.097Z,100.0
2019-05-02T00:34:38.494Z,100.0
2019-05-02T00:35:40.824Z,100.0
2019-05-02T00:36:41.253Z,100.0
2019-05-02T00:37:42.649Z,100.0
2019-05-02T00:38:44.043Z,100.0
2019-05-02T00:39:49.105Z,100.0
2019-05-02T00:40:46.829Z,100.0
2019-05-02T00:41:48.221Z,100.0
2019-05-02T00:42:53.395Z,100.0
2019-05-02T00:43:51.000Z,100.0
2019-05-02T00:44:52.386Z,100.0
2019-05-02T00:45:55.033Z,100.0
2019-05-02T00:46:55.145Z,100.0
2019-05-02T00:47:56.554Z,100.0
2019-05-02T00:48:59.942Z,100.0
2019-05-02T00:49:59.322Z,100.0
2019-05-02T00:51:00.716Z,100.0
2019-05-02T00:52:03.137Z,100.0
2019-05-02T00:53:07.236Z,100.0
2019-05-02T00:54:04.820Z,100.0
2019-05-02T00:55:06.215Z,100.0
2019-05-02T00:56:09.014Z,100.0
2019-05-02T00:57:08.981Z,100.0
2019-05-02T00:58:10.389Z,100.0
2019-05-02T00:59:11.772Z,100.0
2019-05-02T01:00:13.427Z,100.0
2019-05-02T01:01:14.575Z,100.0
2019-05-02T01:02:15.981Z,100.0
2019-05-02T01:03:17.948Z,100.0
2019-05-02T01:04:23.214Z,100.0
2019-05-02T01:05:20.129Z,100.0
2019-05-02T01:06:21.523Z,100.0
2019-05-02T01:07:25.414Z,100.0
2019-05-02T01:08:24.288Z,100.0
2019-05-02T01:09:25.661Z,100.0
2019-05-02T01:10:27.060Z,100.0
2019-05-02T01:11:31.843Z,100.0
2019-05-02T01:12:29.834Z,100.0
2019-05-02T01:13:31.268Z,100.0
2019-05-02T01:14:33.283Z,100.0
2019-05-02T01:15:34.141Z,100.0
2019-05-02T01:16:35.542Z,100.0
2019-05-02T01:17:36.932Z,100.0
2019-05-02T01:18:41.315Z,100.0
2019-05-02T01:19:39.680Z,100.0
2019-05-02T01:20:41.117Z,100.0
2019-05-02T01:21:42.529Z,100.0
2019-05-02T01:22:47.081Z,100.0
2019-05-02T01:23:45.276Z,100.0
2019-05-02T01:24:46.678Z,100.0
2019-05-02T01:25:52.757Z,100.0
2019-05-02T01:26:49.471Z,100.0
2019-05-02T01:27:50.863Z,100.0
2019-05-02T01:28:54.334Z,100.0
2019-05-02T01:29:53.662Z,100.0
2019-05-02T01:30:55.066Z,100.0
2019-05-02T01:31:56.482Z,100.0
2019-05-02T01:33:01.426Z,100.0
2019-05-02T01:33:59.242Z,100.0
2019-05-02T01:35:00.644Z,100.0
2019-05-02T01:36:06.137Z,100.0
2019-05-02T01:37:03.412Z,100.0
2019-05-02T01:38:04.802Z,100.0
2019-05-02T01:39:07.622Z,100.0
2019-05-02T01:40:07.595Z,100.0
2019-05-02T01:41:08.997Z,100.0
2019-05-02T01:42:10.420Z,100.0
2019-05-02T01:43:11.812Z,100.0
2019-05-02T01:44:13.207Z,100.0
2019-05-02T01:45:14.597Z,100.0
2019-05-02T01:46:17.122Z,100.0
2019-05-02T01:47:17.361Z,100.0
2019-05-02T01:48:18.756Z,100.0
2019-05-02T01:49:21.867Z,100.0
2019-05-02T01:50:21.513Z,100.0
2019-05-02T01:51:22.937Z,100.0
2019-05-02T01:52:24.999Z,100.0
2019-05-02T01:53:29.208Z,100.0
2019-05-02T01:54:27.070Z,100.0
2019-05-02T01:55:28.482Z,100.0
2019-05-02T01:56:33.042Z,100.0
2019-05-02T01:57:31.235Z,100.0
2019-05-02T01:58:32.635Z,100.0
2019-05-02T01:59:35.127Z,100.0
2019-05-02T02:00:35.399Z,100.0
2019-05-02T02:01:36.799Z,100.0
2019-05-02T02:02:38.198Z,100.0
2019-05-02T02:03:40.541Z,100.0
2019-05-02T02:04:40.956Z,100.0
2019-05-02T02:05:42.392Z,100.0
2019-05-02T02:06:45.120Z,100.0
2019-05-02T02:07:45.282Z,100.0
2019-05-02T02:08:46.672Z,100.0
2019-05-02T02:09:48.105Z,100.0
2019-05-02T02:10:50.636Z,100.0
2019-05-02T02:11:50.883Z,100.0
2019-05-02T02:13:03.229Z,100.0
2019-05-02T02:13:53.666Z,100.0
2019-05-02T02:14:55.533Z,100.0
2019-05-02T02:16:00.309Z,100.0
2019-05-02T02:16:57.791Z,100.0
2019-05-02T02:17:59.199Z,100.0
2019-05-02T02:19:03.994Z,100.0
2019-05-02T02:20:01.971Z,100.0
2019-05-02T02:21:03.365Z,100.0
2019-05-02T02:22:04.782Z,100.0
2019-05-02T02:23:10.255Z,100.0
2019-05-02T02:24:07.557Z,100.0
2019-05-02T02:25:08.981Z,100.0
2019-05-02T02:26:12.102Z,100.0
2019-05-02T02:27:11.763Z,100.0
2019-05-02T02:28:13.169Z,100.0
2019-05-02T02:29:14.553Z,100.0
2019-05-02T02:30:17.795Z,100.0
2019-05-02T02:31:17.313Z,100.0
2019-05-02T02:32:20.129Z,100.0
2019-05-02T02:33:20.121Z,100.0
2019-05-02T02:34:28.771Z,100.0
2019-05-02T02:35:22.889Z,100.0
2019-05-02T02:36:31.296Z,100.0
2019-05-02T02:37:25.675Z,100.0
2019-05-02T02:38:32.892Z,100.0
2019-05-02T02:39:28.434Z,100.0
2019-05-02T02:40:33.652Z,100.0
2019-05-02T02:41:31.238Z,100.0
2019-05-02T02:42:34.065Z,100.0
2019-05-02T02:43:34.993Z,100.0
2019-05-02T02:44:39.827Z,100.0
2019-05-02T02:45:36.790Z,100.0
2019-05-02T02:46:39.862Z,100.0
2019-05-02T02:47:39.539Z,100.0
2019-05-02T02:48:42.585Z,100.0
2019-05-02T02:49:42.367Z,100.0
2019-05-02T02:50:45.214Z,100.0
2019-05-02T02:51:45.139Z,100.0
2019-05-02T02:52:47.099Z,100.0
2019-05-02T02:53:47.909Z,100.0
2019-05-02T02:54:49.314Z,100.0
2019-05-02T02:56:00.833Z,100.0
2019-05-02T02:56:52.128Z,100.0
2019-05-02T02:57:58.365Z,100.0
2019-05-02T02:58:55.079Z,100.0
2019-05-02T03:00:06.709Z,100.0
2019-05-02T03:00:57.826Z,100.0
2019-05-02T03:02:09.359Z,100.0
2019-05-02T03:03:00.590Z,100.0
2019-05-02T03:04:08.618Z,100.0
2019-05-02T03:05:03.339Z,100.0
2019-05-02T03:06:05.604Z,100.0
2019-05-02T03:07:06.120Z,100.0
2019-05-02T03:08:07.529Z,100.0
2019-05-02T03:09:08.918Z,100.0
2019-05-02T03:10:10.350Z,100.0
2019-05-02T03:11:17.482Z,100.0
2019-05-02T03:12:13.137Z,100.0
2019-05-02T03:13:14.897Z,100.0
2019-05-02T03:14:15.920Z,100.0
2019-05-02T03:15:21.227Z,100.0
2019-05-02T03:16:18.660Z,100.0
2019-05-02T03:17:26.655Z,100.0
2019-05-02T03:18:21.570Z,100.0
2019-05-02T03:19:23.411Z,100.0
2019-05-02T03:20:24.506Z,100.0
2019-05-02T03:21:25.939Z,100.0
2019-05-02T03:22:27.339Z,100.0
2019-05-02T03:23:28.743Z,100.0
2019-05-02T03:24:30.131Z,100.0
2019-05-02T03:25:49.255Z,100.0
2019-05-02T03:26:32.898Z,100.0
2019-05-02T03:27:37.285Z,100.0
2019-05-02T03:28:35.668Z,100.0
2019-05-02T03:29:43.650Z,100.0
2019-05-02T03:30:38.594Z,100.0
2019-05-02T03:31:39.994Z,100.0
2019-05-02T03:32:41.409Z,100.0
2019-05-02T03:33:54.197Z,100.0
2019-05-02T03:34:52.336Z,100.0
2019-05-02T03:35:49.195Z,100.0
2019-05-02T03:36:47.100Z,100.0
2019-05-02T03:37:51.288Z,100.0
2019-05-02T03:38:49.848Z,100.0
2019-05-02T03:39:57.427Z,100.0
2019-05-02T03:40:52.639Z,100.0
2019-05-02T03:41:55.563Z,100.0
2019-05-02T03:42:55.536Z,100.0
2019-05-02T03:44:10.558Z,100.0
2019-05-02T03:45:03.823Z,100.0
2019-05-02T03:45:59.644Z,100.0
2019-05-02T03:47:01.813Z,100.0
2019-05-02T03:48:02.481Z,100.0
2019-05-02T03:49:07.243Z,100.0
2019-05-02T03:50:08.568Z,100.0
2019-05-02T03:51:20.039Z,100.0
2019-05-02T03:52:07.998Z,100.0
2019-05-02T03:53:09.383Z,100.0
2019-05-02T03:54:10.800Z,100.0
2019-05-02T03:55:12.204Z,100.0
2019-05-02T03:56:14.175Z,100.0
2019-05-02T03:57:14.965Z,100.0
2019-05-02T03:58:16.988Z,100.0
2019-05-02T03:59:17.715Z,100.0
2019-05-02T04:00:20.821Z,100.0
2019-05-02T04:01:20.493Z,100.0
2019-05-02T04:02:21.953Z,100.0
2019-05-02T04:03:23.249Z,100.0
2019-05-02T04:04:24.636Z,100.0
2019-05-02T04:05:26.040Z,100.0
2019-05-02T04:06:27.446Z,100.0
2019-05-02T04:07:34.691Z,100.0
2019-05-02T04:08:30.213Z,100.0
2019-05-02T04:09:32.201Z,100.0
2019-05-02T04:10:32.976Z,100.0
2019-05-02T04:11:39.150Z,100.0
2019-05-02T04:12:35.764Z,100.0
2019-05-02T04:13:38.158Z,100.0
2019-05-02T04:14:38.934Z,100.0
2019-05-02T04:15:39.964Z,100.0
2019-05-02T04:16:41.364Z,100.0
2019-05-02T04:17:42.764Z,100.0
2019-05-02T04:18:54.742Z,100.0
2019-05-02T04:19:45.511Z,100.0
2019-05-02T04:20:49.516Z,100.0
2019-05-02T04:21:52.507Z,100.0
2019-05-02T04:22:50.777Z,100.0
2019-05-02T04:23:51.018Z,100.0
2019-05-02T04:24:56.823Z,100.0
2019-05-02T04:25:53.923Z,100.0
2019-05-02T04:26:56.322Z,100.0
2019-05-02T04:27:56.693Z,100.0
2019-05-02T04:28:58.087Z,100.0
2019-05-02T04:30:09.895Z,100.0
2019-05-02T04:31:00.836Z,100.0
2019-05-02T04:32:04.310Z,100.0
2019-05-02T04:33:03.613Z,100.0
2019-05-02T04:34:14.017Z,100.0
2019-05-02T04:35:06.436Z,100.0
2019-05-02T04:36:14.820Z,100.0
2019-05-02T04:37:09.219Z,100.0
2019-05-02T04:38:20.010Z,100.0
2019-05-02T04:39:17.759Z,100.0
2019-05-02T04:40:13.509Z,100.0
2019-05-02T04:41:21.358Z,100.0
2019-05-02T04:42:19.578Z,100.0
2019-05-02T04:43:18.364Z,100.0
2019-05-02T04:44:19.127Z,100.0
2019-05-02T04:45:26.536Z,100.0
2019-05-02T04:46:26.855Z,100.0
2019-05-02T04:47:23.172Z,100.0
2019-05-02T04:48:24.585Z,100.0
2019-05-02T04:49:32.843Z,100.0
2019-05-02T04:50:29.473Z,100.0
2019-05-02T04:51:31.785Z,100.0
2019-05-02T04:52:30.215Z,100.0
2019-05-02T04:53:36.786Z,100.0
2019-05-02T04:54:33.084Z,100.0
2019-05-02T04:55:34.495Z,100.0
2019-05-02T04:56:42.217Z,100.0
2019-05-02T04:57:46.260Z,100.0
2019-05-02T04:58:40.737Z,100.0
2019-05-02T04:59:40.043Z,100.0
2019-05-02T05:00:45.117Z,100.0
2019-05-02T05:01:52.643Z,100.0
2019-05-02T05:02:44.659Z,100.0
2019-05-02T05:03:49.119Z,100.0
2019-05-02T05:04:49.383Z,100.0
2019-05-02T05:05:48.764Z,100.0
2019-05-02T05:06:56.225Z,100.0
2019-05-02T05:07:51.512Z,100.0
2019-05-02T05:08:52.908Z,100.0
2019-05-02T05:09:58.226Z,100.0
2019-05-02T05:10:57.274Z,100.0
2019-05-02T05:11:58.963Z,100.0
2019-05-02T05:12:58.468Z,100.0
2019-05-02T05:14:00.420Z,100.0
2019-05-02T05:15:01.268Z,100.0
2019-05-02T05:16:07.137Z,100.0
2019-05-02T05:17:04.232Z,100.0
2019-05-02T05:18:10.400Z,100.0
2019-05-02T05:19:07.631Z,100.0
2019-05-02T05:20:14.111Z,100.0
2019-05-02T05:21:10.642Z,100.0
2019-05-02T05:22:11.959Z,100.0
2019-05-02T05:23:15.746Z,100.0
2019-05-02T05:24:14.137Z,100.0
2019-05-02T05:25:17.638Z,100.0
2019-05-02T05:26:17.489Z,100.0
2019-05-02T05:27:22.522Z,100.0
2019-05-02T05:28:20.048Z,100.0
2019-05-02T05:29:23.274Z,100.0
2019-05-02T05:30:22.675Z,100.0
2019-05-02T05:31:25.520Z,100.0
2019-05-02T05:32:25.655Z,100.0
2019-05-02T05:33:28.402Z,100.0
2019-05-02T05:34:32.578Z,100.0
2019-05-02T05:43:13.594Z,100.0
2019-05-02T06:00:55.465Z,100.0
2019-05-02T06:01:57.872Z,100.0
2019-05-02T06:03:10.203Z,100.0
2019-05-02T06:04:01.682Z,100.0
2019-05-02T06:05:04.303Z,100.0
2019-05-02T06:06:09.741Z,100.0
2019-05-02T06:07:11.360Z,100.0
2019-05-02T06:08:18.247Z,100.0
2019-05-02T06:09:19.968Z,100.0
2019-05-02T06:10:24.425Z,100.0
2019-05-02T06:11:28.068Z,100.0
2019-05-02T06:12:35.193Z,100.0
2019-05-02T06:13:37.924Z,100.0
2019-05-02T06:14:39.179Z,100.0
2019-05-02T06:15:45.817Z,100.0
2019-05-02T06:16:51.243Z,100.0
2019-05-02T06:17:53.287Z,100.0
2019-05-02T06:18:58.107Z,100.0
2019-05-02T06:20:03.355Z,100.0
2019-05-02T06:21:09.233Z,100.0
2019-05-02T06:22:15.978Z,100.0
2019-05-02T06:23:17.801Z,100.0
2019-05-02T06:24:22.612Z,100.0
2019-05-02T06:25:34.598Z,100.0
2019-05-02T06:26:32.283Z,100.0
2019-05-02T06:27:36.725Z,100.0
2019-05-02T06:28:43.218Z,100.0
2019-05-02T06:29:51.006Z,100.0
2019-05-02T06:30:49.995Z,100.0
2019-05-02T06:31:54.610Z,100.0
2019-05-02T06:32:58.699Z,100.0
2019-05-02T06:34:06.917Z,100.0
2019-05-02T06:35:08.693Z,100.0
2019-05-02T06:36:12.404Z,100.0
2019-05-02T06:37:16.759Z,100.0
2019-05-02T06:38:21.952Z,100.0
2019-05-02T06:39:27.168Z,100.0
2019-05-02T06:40:30.206Z,100.0
2019-05-02T06:41:34.763Z,100.0
2019-05-02T06:42:38.119Z,100.0
2019-05-02T06:43:46.396Z,100.0
2019-05-02T06:44:46.495Z,100.0
2019-05-02T06:45:50.089Z,100.0
2019-05-02T06:46:53.052Z,100.0
2019-05-02T06:47:57.266Z,100.0
2019-05-02T06:49:01.088Z,100.0
2019-05-02T06:50:04.939Z,100.0
2019-05-02T06:51:11.003Z,100.0
2019-05-02T06:52:14.200Z,100.0
2019-05-02T06:53:18.422Z,100.0
2019-05-02T06:54:22.960Z,100.0
2019-05-02T06:55:28.135Z,100.0
2019-05-02T06:56:31.048Z,100.0
2019-05-02T06:57:34.974Z,100.0
2019-05-02T06:58:41.748Z,100.0
2019-05-02T06:59:44.998Z,100.0
2019-05-02T07:00:57.594Z,100.0
2019-05-02T07:01:57.272Z,100.0
2019-05-02T07:02:58.001Z,100.0
2019-05-02T07:04:04.021Z,100.0
2019-05-02T07:05:06.458Z,100.0
2019-05-02T07:06:10.483Z,100.0
2019-05-02T07:07:14.224Z,100.0
2019-05-02T07:08:19.116Z,100.0
2019-05-02T07:09:24.109Z,100.0
2019-05-02T07:10:30.917Z,100.0
2019-05-02T07:11:33.108Z,100.0
2019-05-02T07:12:35.809Z,100.0
2019-05-02T07:13:42.005Z,100.0
2019-05-02T07:14:45.784Z,100.0
2019-05-02T07:15:48.858Z,100.0
2019-05-02T07:16:54.449Z,100.0
2019-05-02T07:17:55.516Z,100.0
2019-05-02T07:18:58.816Z,100.0
2019-05-02T07:20:04.269Z,100.0
2019-05-02T07:21:07.262Z,100.0
2019-05-02T07:22:11.927Z,100.0
2019-05-02T07:23:18.132Z,100.0
2019-05-02T07:24:20.038Z,100.0
2019-05-02T07:25:23.720Z,100.0
2019-05-02T07:26:27.734Z,100.0
2019-05-02T07:27:33.677Z,100.0
2019-05-02T07:28:35.060Z,100.0
2019-05-02T07:29:39.622Z,100.0
2019-05-02T07:30:44.158Z,99.7
2019-05-02T07:31:47.776Z,99.5
2019-05-02T07:32:51.453Z,98.1
2019-05-02T07:33:56.658Z,98.2
2019-05-02T07:35:00.634Z,99.2
2019-05-02T07:36:04.393Z,98.9
2019-05-02T07:37:12.485Z,99.1
2019-05-02T07:38:12.495Z,98.8
2019-05-02T07:39:15.628Z,98.2
2019-05-02T07:40:19.595Z,98.1
2019-05-02T07:41:24.207Z,97.9
2019-05-02T07:42:28.200Z,98.7
2019-05-02T07:43:31.840Z,98.5
2019-05-02T07:44:36.978Z,99.3
2019-05-02T07:45:45.204Z,99.7
2019-05-02T07:46:51.614Z,99.2
2019-05-02T07:47:48.937Z,98.4
2019-05-02T07:48:54.499Z,98.3
2019-05-02T07:49:56.039Z,98.6
2019-05-02T07:50:59.251Z,96.9
2019-05-02T07:52:03.293Z,96.3
2019-05-02T07:53:09.647Z,96.7
2019-05-02T07:54:11.352Z,97.0
2019-05-02T07:55:15.794Z,96.1
2019-05-02T07:56:19.995Z,95.6
2019-05-02T07:57:25.277Z,96.0
2019-05-02T07:58:27.614Z,96.8
2019-05-02T07:59:31.324Z,95.1
2019-05-02T08:00:37.032Z,94.6
2019-05-02T08:01:38.522Z,95.5
2019-05-02T08:02:42.255Z,94.7
2019-05-02T08:03:46.878Z,94.0
2019-05-02T08:04:50.803Z,94.0
2019-05-02T08:05:54.491Z,93.9
2019-05-02T08:06:57.135Z,93.8
2019-05-02T08:08:01.065Z,94.2
2019-05-02T08:09:07.151Z,93.0
2019-05-02T08:10:07.391Z,92.1
2019-05-02T08:11:10.202Z,92.8
2019-05-02T08:12:14.220Z,92.4
2019-05-02T08:13:19.414Z,91.4
2019-05-02T08:14:22.088Z,90.5
2019-05-02T08:15:25.141Z,91.1
2019-05-02T08:16:28.876Z,91.4
2019-05-02T08:17:31.656Z,92.6
2019-05-02T08:18:35.375Z,90.4
2019-05-02T08:19:41.579Z,91.5
2019-05-02T08:20:40.718Z,92.6
2019-05-02T08:21:43.643Z,91.0
2019-05-02T08:22:49.009Z,89.9
2019-05-02T08:23:50.941Z,90.8
2019-05-02T08:24:54.966Z,90.2
2019-05-02T08:25:58.172Z,90.0
2019-05-02T08:27:01.361Z,90.0
2019-05-02T08:28:04.953Z,89.9
2019-05-02T08:29:08.592Z,89.3
2019-05-02T08:30:11.763Z,89.1
2019-05-02T08:31:18.759Z,89.3
2019-05-02T08:32:18.153Z,89.3
2019-05-02T08:33:21.451Z,88.6
2019-05-02T08:34:24.527Z,89.2
2019-05-02T08:35:28.419Z,89.4
2019-05-02T08:36:31.578Z,89.3
2019-05-02T08:37:35.401Z,90.0
2019-05-02T08:38:38.133Z,89.7
2019-05-02T08:39:41.497Z,90.1
2019-05-02T08:40:47.882Z,89.8
2019-05-02T08:41:51.229Z,89.3
2019-05-02T08:42:52.188Z,89.3
2019-05-02T08:43:55.029Z,88.7
2019-05-02T08:45:01.021Z,88.0
2019-05-02T08:46:02.171Z,87.7
2019-05-02T08:47:17.685Z,87.6
2019-05-02T08:48:08.194Z,87.7
2019-05-02T08:49:14.210Z,87.4
2019-05-02T08:50:13.406Z,87.7
2019-05-02T08:51:16.452Z,86.7
2019-05-02T08:52:19.626Z,86.4
2019-05-02T08:53:22.842Z,86.4
2019-05-02T08:54:27.906Z,86.1
2019-05-02T08:55:29.926Z,87.1
2019-05-02T08:56:31.475Z,86.4
2019-05-02T08:57:34.587Z,86.4
2019-05-02T08:58:37.246Z,86.2
2019-05-02T08:59:40.903Z,86.3
2019-05-02T09:00:46.878Z,86.0
2019-05-02T09:01:49.471Z,85.7
2019-05-02T09:02:49.390Z,84.4
2019-05-02T09:03:55.336Z,84.1
2019-05-02T09:04:58.827Z,82.9
2019-05-02T09:06:05.510Z,82.8
2019-05-02T09:07:01.979Z,83.3
2019-05-02T09:08:09.054Z,83.6
2019-05-02T09:09:08.094Z,83.6
2019-05-02T09:10:10.861Z,83.9
2019-05-02T09:11:14.209Z,84.0
2019-05-02T09:12:16.592Z,83.4
2019-05-02T09:13:26.134Z,82.4
2019-05-02T09:14:22.522Z,81.5
2019-05-02T09:15:25.755Z,82.9
2019-05-02T09:16:30.270Z,82.9
2019-05-02T09:17:37.757Z,83.0
2019-05-02T09:18:38.274Z,82.1
2019-05-02T09:19:37.572Z,80.6
2019-05-02T09:20:42.292Z,81.7
2019-05-02T09:21:43.665Z,83.7
2019-05-02T09:22:50.972Z,82.5
2019-05-02T09:23:51.358Z,81.9
2019-05-02T09:24:52.810Z,80.4
2019-05-02T09:25:55.614Z,80.6
2019-05-02T09:26:58.877Z,79.3
2019-05-02T09:28:01.883Z,79.8
2019-05-02T09:29:05.421Z,78.6
2019-05-02T09:30:06.859Z,79.0
2019-05-02T09:31:09.498Z,78.8
2019-05-02T09:32:12.555Z,77.8
2019-05-02T09:33:15.405Z,77.4
2019-05-02T09:34:21.603Z,77.1
2019-05-02T09:35:23.083Z,77.7
2019-05-02T09:36:24.793Z,77.6
2019-05-02T09:37:27.613Z,77.8
2019-05-02T09:38:32.728Z,77.9
2019-05-02T09:39:36.396Z,76.1
2019-05-02T09:40:37.533Z,76.7
2019-05-02T09:41:41.936Z,77.6
2019-05-02T09:42:47.418Z,76.5
2019-05-02T09:43:48.322Z,77.8
2019-05-02T09:44:55.693Z,75.8
2019-05-02T09:45:54.041Z,74.7
2019-05-02T09:46:58.123Z,75.6
2019-05-02T09:48:05.119Z,74.7
2019-05-02T09:49:10.665Z,74.2
2019-05-02T09:50:07.636Z,73.3
2019-05-02T09:51:15.656Z,73.9
2019-05-02T09:52:13.905Z,74.1
2019-05-02T09:53:20.863Z,73.3
2019-05-02T09:54:19.826Z,74.0
2019-05-02T09:55:22.922Z,74.7
2019-05-02T09:56:26.721Z,74.1
2019-05-02T09:57:31.603Z,74.6
2019-05-02T09:58:33.667Z,74.4
2019-05-02T09:59:36.565Z,71.6
2019-05-02T10:00:41.672Z,70.7
2019-05-02T10:01:42.780Z,71.8
2019-05-02T10:02:46.475Z,71.1
2019-05-02T10:03:49.248Z,70.4
2019-05-02T10:04:52.641Z,70.6
2019-05-02T10:05:56.569Z,70.0
2019-05-02T10:07:00.087Z,69.5
2019-05-02T10:08:06.730Z,69.5
2019-05-02T10:09:06.918Z,68.3
2019-05-02T10:10:12.545Z,68.5
2019-05-02T10:11:16.810Z,68.8
2019-05-02T10:12:17.192Z,69.6
2019-05-02T10:13:22.608Z,69.6
2019-05-02T10:14:24.112Z,68.8
2019-05-02T10:15:27.969Z,69.6
2019-05-02T10:16:31.913Z,70.0
2019-05-02T10:17:37.597Z,68.8
2019-05-02T10:18:38.159Z,66.5
2019-05-02T10:19:48.808Z,64.2
2019-05-02T10:20:44.909Z,64.3
2019-05-02T10:21:52.466Z,64.6
2019-05-02T10:22:53.044Z,64.7
2019-05-02T10:23:58.940Z,63.5
2019-05-02T10:24:58.204Z,63.3
2019-05-02T10:26:02.782Z,65.1
2019-05-02T10:27:08.381Z,65.8
2019-05-02T10:28:09.970Z,64.1
2019-05-02T10:29:12.730Z,61.7
2019-05-02T10:30:15.587Z,60.8
2019-05-02T10:31:18.443Z,60.9
2019-05-02T10:32:22.675Z,59.6
2019-05-02T10:33:28.048Z,59.9
2019-05-02T10:34:29.880Z,62.5
2019-05-02T10:35:37.453Z,62.2
2019-05-02T10:36:37.931Z,62.6
2019-05-02T10:37:42.997Z,62.2
2019-05-02T10:38:44.661Z,62.1
2019-05-02T10:39:49.039Z,63.7
2019-05-02T10:40:59.332Z,62.0
2019-05-02T10:41:57.673Z,62.2
2019-05-02T10:43:02.890Z,61.7
2019-05-02T10:44:05.174Z,60.0
2019-05-02T10:45:12.329Z,60.0
2019-05-02T10:46:12.792Z,58.3
2019-05-02T10:47:16.395Z,58.6
2019-05-02T10:48:25.892Z,58.5
2019-05-02T10:49:24.469Z,60.2
2019-05-02T10:50:27.888Z,56.3
2019-05-02T10:51:31.548Z,56.7
2019-05-02T10:52:34.393Z,56.1
2019-05-02T10:53:38.085Z,57.6
2019-05-02T10:54:42.173Z,56.3
2019-05-02T10:55:44.850Z,58.7
2019-05-02T10:56:48.918Z,58.8
2019-05-02T10:57:52.790Z,56.1
2019-05-02T10:58:56.543Z,55.3
2019-05-02T11:00:00.345Z,56.6
2019-05-02T11:01:04.335Z,57.9
2019-05-02T11:02:08.038Z,58.5
2019-05-02T11:03:12.159Z,57.1
2019-05-02T11:04:16.921Z,56.8
2019-05-02T11:05:24.663Z,56.7
2019-05-02T11:06:24.347Z,57.7
2019-05-02T11:07:28.031Z,57.9
2019-05-02T11:08:32.193Z,55.7
2019-05-02T11:09:36.750Z,54.8
2019-05-02T11:10:42.176Z,54.8
2019-05-02T11:11:44.123Z,53.9
2019-05-02T11:12:47.704Z,54.3
2019-05-02T11:13:53.432Z,53.9
2019-05-02T11:14:57.175Z,53.5
2019-05-02T11:16:01.658Z,53.4
2019-05-02T11:17:08.592Z,54.1
2019-05-02T11:18:10.192Z,53.5
2019-05-02T11:19:15.125Z,53.5
2019-05-02T11:20:19.543Z,53.7
2019-05-02T11:21:23.968Z,52.3
2019-05-02T11:22:27.696Z,50.5
2019-05-02T11:23:32.862Z,50.2
2019-05-02T11:24:34.808Z,49.8
2019-05-02T11:25:38.876Z,48.1
2019-05-02T11:26:42.827Z,49.2
2019-05-02T11:27:46.581Z,49.5
2019-05-02T11:28:51.994Z,50.8
2019-05-02T11:29:52.874Z,52.4
2019-05-02T11:30:57.032Z,52.0
2019-05-02T11:31:59.240Z,52.0
2019-05-02T11:33:04.021Z,51.4
2019-05-02T11:34:07.694Z,52.0
2019-05-02T11:35:12.140Z,51.9
2019-05-02T11:36:15.726Z,51.3
2019-05-02T11:37:19.587Z,52.0
2019-05-02T11:38:51.657Z,52.4
2019-05-02T11:39:32.896Z,52.4
2019-05-02T11:40:32.174Z,51.5
2019-05-02T11:41:35.234Z,50.9
2019-05-02T11:42:38.160Z,48.9
2019-05-02T11:43:44.832Z,49.7
2019-05-02T11:44:47.203Z,48.3
2019-05-02T11:45:55.878Z,48.8
2019-05-02T11:46:57.322Z,48.7
2019-05-02T11:48:08.601Z,50.1
2019-05-02T11:49:05.150Z,50.9
2019-05-02T11:50:08.396Z,51.1
2019-05-02T11:51:13.963Z,49.5
2019-05-02T11:52:15.727Z,50.4
2019-05-02T11:53:29.268Z,51.1
2019-05-02T11:54:23.623Z,52.8
2019-05-02T11:55:28.973Z,50.9
2019-05-02T11:56:32.898Z,49.4
2019-05-02T11:57:36.145Z,48.7
2019-05-02T11:58:42.355Z,49.8
2019-05-02T11:59:45.015Z,48.6
2019-05-02T12:00:49.879Z,47.8
2019-05-02T12:01:59.328Z,48.5
2019-05-02T12:02:59.524Z,49.0
2019-05-02T12:04:07.483Z,48.8
2019-05-02T12:05:08.175Z,48.7
2019-05-02T12:06:18.956Z,48.0
2019-05-02T12:07:16.982Z,48.6
2019-05-02T12:08:22.737Z,48.1
2019-05-02T12:09:26.842Z,48.2
2019-05-02T12:10:32.977Z,48.4
2019-05-02T12:11:35.625Z,47.7
2019-05-02T12:12:40.330Z,47.7
2019-05-02T12:13:47.289Z,48.1
2019-05-02T12:14:52.722Z,47.3
2019-05-02T12:15:55.504Z,46.5
2019-05-02T12:17:00.024Z,46.9
2019-05-02T12:18:03.838Z,47.4
2019-05-02T12:19:11.744Z,48.1
2019-05-02T12:20:13.053Z,47.8
2019-05-02T12:21:17.449Z,47.0
2019-05-02T12:22:22.604Z,48.4
2019-05-02T12:23:26.259Z,48.5
2019-05-02T12:24:31.758Z,48.8
2019-05-02T12:25:34.587Z,48.3
2019-05-02T12:26:39.208Z,48.7
2019-05-02T12:27:43.348Z,48.7
2019-05-02T12:28:47.857Z,49.0
2019-05-02T12:29:57.528Z,49.0
2019-05-02T12:30:55.710Z,48.7
2019-05-02T12:31:59.903Z,49.9
2019-05-02T12:33:03.743Z,51.0
2019-05-02T12:34:08.091Z,49.8
2019-05-02T12:35:12.498Z,50.6
2019-05-02T12:36:16.609Z,51.4
2019-05-02T12:37:21.863Z,51.5
2019-05-02T12:38:25.073Z,50.0
2019-05-02T12:39:31.582Z,48.9
2019-05-02T12:40:33.668Z,50.0
2019-05-02T12:41:37.790Z,49.9
2019-05-02T12:42:41.854Z,50.8
2019-05-02T12:43:46.101Z,50.9
2019-05-02T12:44:53.135Z,51.4
2019-05-02T12:45:54.808Z,51.6
2019-05-02T12:46:59.212Z,51.4
2019-05-02T12:48:03.117Z,51.1
2019-05-02T12:49:06.488Z,50.5
2019-05-02T12:50:12.048Z,51.1
2019-05-02T12:51:14.985Z,51.3
2019-05-02T12:52:19.975Z,50.8
2019-05-02T12:53:25.860Z,50.7
2019-05-02T12:54:32.537Z,50.9
2019-05-02T12:55:36.278Z,51.5
2019-05-02T12:56:41.804Z,52.0
2019-05-02T12:57:45.712Z,52.1
2019-05-02T12:58:52.871Z,53.2
2019-05-02T12:59:55.313Z,52.6
2019-05-02T13:00:59.557Z,50.9
2019-05-02T13:02:05.135Z,51.0
2019-05-02T13:03:09.188Z,49.4
2019-05-02T13:04:13.450Z,50.9
2019-05-02T13:05:18.048Z,50.1
2019-05-02T13:06:23.065Z,49.7
2019-05-02T13:07:27.871Z,50.1
2019-05-02T13:08:33.016Z,51.1
2019-05-02T13:09:38.579Z,49.9
2019-05-02T13:10:42.396Z,49.7
2019-05-02T13:11:46.488Z,48.9
2019-05-02T13:12:49.400Z,50.1
2019-05-02T13:13:53.641Z,49.6
2019-05-02T13:14:58.896Z,49.3
2019-05-02T13:16:04.453Z,49.0
2019-05-02T13:17:08.034Z,49.2
2019-05-02T13:18:12.470Z,49.9
2019-05-02T13:19:16.312Z,51.0
2019-05-02T13:20:22.332Z,51.4
2019-05-02T13:21:24.696Z,51.5
2019-05-02T13:22:29.046Z,52.0
2019-05-02T13:23:36.056Z,53.2
2019-05-02T13:24:37.214Z,52.9
2019-05-02T13:25:42.446Z,54.0
2019-05-02T13:26:51.352Z,54.1
2019-05-02T13:27:52.101Z,54.6
2019-05-02T13:28:54.696Z,53.9
2019-05-02T13:29:59.609Z,54.5
2019-05-02T13:31:03.813Z,54.2
2019-05-02T13:32:08.658Z,53.7
2019-05-02T13:33:12.834Z,53.9
2019-05-02T13:34:16.862Z,54.3
2019-05-02T13:35:22.252Z,55.0
2019-05-02T13:36:25.910Z,55.1
2019-05-02T13:37:31.806Z,54.9
2019-05-02T13:38:34.964Z,54.6
2019-05-02T13:39:39.234Z,54.9
2019-05-02T13:40:43.871Z,54.7
2019-05-02T13:41:48.019Z,55.5
2019-05-02T13:42:52.653Z,55.8
2019-05-02T13:43:55.600Z,56.0
2019-05-02T13:44:59.395Z,55.8
2019-05-02T13:46:04.820Z,56.2
2019-05-02T13:47:09.543Z,56.7
2019-05-02T13:48:15.141Z,56.5
2019-05-02T13:49:21.986Z,57.2
2019-05-02T13:50:25.051Z,57.9
2019-05-02T13:51:31.908Z,58.3
2019-05-02T13:52:34.872Z,58.6
2019-05-02T13:53:40.009Z,57.9
2019-05-02T13:54:43.421Z,59.1
2019-05-02T13:55:48.294Z,59.6
2019-05-02T13:56:53.312Z,58.9
2019-05-02T13:57:58.914Z,58.8
2019-05-02T13:59:03.634Z,59.3
2019-05-02T14:00:07.339Z,59.9
2019-05-02T14:01:12.336Z,59.6
2019-05-02T14:02:16.869Z,60.7
2019-05-02T14:03:22.610Z,61.9
2019-05-02T14:04:26.460Z,62.9
2019-05-02T14:05:31.838Z,62.3
2019-05-02T14:06:37.954Z,61.7